createdAt,value
2022-10-11T00:02:09.437Z,101764.00
2022-10-11T00:04:36.302Z,101755.09
2022-10-11T00:07:03.182Z,101760.34
2022-10-11T00:09:30.604Z,101758.69
2022-10-11T00:11:57.571Z,101752.66
2022-10-11T00:14:26.175Z,101757.09
2022-10-11T00:16:53.815Z,101763.25
2022-10-11T00:19:20.907Z,101759.84
2022-10-11T00:21:47.979Z,101772.22
2022-10-11T00:24:16.310Z,101778.44
2022-10-11T00:26:46.801Z,101766.91
2022-10-11T00:29:14.546Z,101768.78
2022-10-11T00:31:41.391Z,101772.25
2022-10-11T00:34:08.984Z,101779.44
2022-10-11T00:36:35.844Z,101774.22
2022-10-11T00:39:02.667Z,101774.25
2022-10-11T00:41:29.550Z,101781.38
2022-10-11T00:44:21.557Z,101777.00
2022-10-11T00:47:12.233Z,101780.56
2022-10-11T00:49:42.104Z,101778.03
2022-10-11T00:52:32.077Z,101779.03
2022-10-11T00:55:05.384Z,101791.44
2022-10-11T00:57:35.279Z,101784.28
2022-10-11T01:00:02.332Z,101774.59
2022-10-11T01:02:30.590Z,101780.69
2022-10-11T01:05:17.835Z,101788.84
2022-10-11T01:07:46.628Z,101783.53
2022-10-11T01:10:14.028Z,101781.88
2022-10-11T01:12:59.823Z,101788.09
2022-10-11T01:15:52.038Z,101774.94
2022-10-11T01:18:37.259Z,101771.41
2022-10-11T01:21:59.381Z,101767.88
2022-10-11T01:24:41.085Z,101766.97
2022-10-11T01:27:31.068Z,101763.47
2022-10-11T01:30:22.229Z,101760.94
2022-10-11T01:32:55.182Z,101769.63
2022-10-11T01:35:32.269Z,101767.75
2022-10-11T01:38:17.446Z,101780.31
2022-10-11T01:41:02.765Z,101771.53
2022-10-11T01:43:30.668Z,101776.03
2022-10-11T01:46:00.728Z,101773.34
2022-10-11T01:48:27.674Z,101771.69
2022-10-11T01:50:57.565Z,101768.19
2022-10-11T01:53:55.006Z,101770.88
2022-10-11T01:56:46.840Z,101769.16
2022-10-11T01:59:31.939Z,101773.56
2022-10-11T02:02:32.286Z,101778.00
2022-10-11T02:05:29.726Z,101780.72
2022-10-11T02:08:21.087Z,101775.44
2022-10-11T02:10:55.796Z,101774.59
2022-10-11T02:13:31.652Z,101778.13
2022-10-11T02:16:02.648Z,101778.13
2022-10-11T02:18:34.836Z,101774.69
2022-10-11T02:21:05.350Z,101771.25
2022-10-11T02:23:37.242Z,101765.00
2022-10-11T02:26:07.275Z,101765.00
2022-10-11T02:28:38.391Z,101769.44
2022-10-11T02:31:07.469Z,101773.81
2022-10-11T02:33:46.978Z,101768.53
2022-10-11T02:36:25.532Z,101770.44
2022-10-11T02:41:36.289Z,101773.06
2022-10-11T02:44:14.002Z,101768.78
2022-10-11T02:46:43.312Z,101771.38
2022-10-11T02:49:11.304Z,101769.63
2022-10-11T02:54:05.934Z,101774.16
2022-10-11T02:56:32.827Z,101762.63
2022-10-11T02:58:59.619Z,101759.13
2022-10-11T03:01:26.670Z,101766.19
2022-10-11T03:03:53.571Z,101757.38
2022-10-11T03:06:20.406Z,101758.25
2022-10-11T03:08:47.257Z,101762.69
2022-10-11T03:11:14.039Z,101763.63
2022-10-11T03:13:41.041Z,101762.75
2022-10-11T03:16:07.937Z,101755.72
2022-10-11T03:18:34.865Z,101768.97
2022-10-11T03:21:01.723Z,101769.88
2022-10-11T03:23:28.643Z,101772.53
2022-10-11T03:25:55.473Z,101760.22
2022-10-11T03:28:22.573Z,101766.41
2022-10-11T03:30:51.137Z,101754.16
2022-10-11T03:33:18.560Z,101755.84
2022-10-11T03:35:46.707Z,101752.41
2022-10-11T03:38:15.915Z,101748.78
2022-10-11T03:40:44.036Z,101747.91
2022-10-11T03:43:11.733Z,101748.84
2022-10-11T03:45:39.178Z,101751.53
2022-10-11T03:48:06.389Z,101742.81
2022-10-11T03:50:33.231Z,101748.97
2022-10-11T03:53:00.259Z,101756.06
2022-10-11T03:55:27.222Z,101758.75
2022-10-11T03:57:54.139Z,101762.25
2022-10-11T04:00:20.993Z,101761.41
2022-10-11T04:02:47.855Z,101761.47
2022-10-11T04:05:14.895Z,101759.72
2022-10-11T04:07:41.742Z,101764.19
2022-10-11T04:10:08.925Z,101758.94
2022-10-11T04:12:38.320Z,101764.25
2022-10-11T04:15:06.757Z,101763.38
2022-10-11T04:17:33.806Z,101766.03
2022-10-11T04:20:00.617Z,101767.84
2022-10-11T04:22:27.409Z,101773.19
2022-10-11T04:24:54.400Z,101774.13
2022-10-11T04:27:21.364Z,101774.03
2022-10-11T04:29:48.297Z,101784.72
2022-10-11T04:32:15.133Z,101774.03
2022-10-11T04:34:42.400Z,101769.75
2022-10-11T04:37:09.234Z,101786.50
2022-10-11T04:39:36.137Z,101782.06
2022-10-11T04:42:02.957Z,101777.56
2022-10-11T04:44:29.830Z,101784.56
2022-10-11T04:46:56.696Z,101776.63
2022-10-11T04:49:24.290Z,101780.91
2022-10-11T04:51:51.184Z,101779.25
2022-10-11T04:54:18.027Z,101769.66
2022-10-11T04:56:44.883Z,101780.22
2022-10-11T04:59:12.010Z,101779.41
2022-10-11T05:01:38.936Z,101784.72
2022-10-11T05:04:05.916Z,101785.50
2022-10-11T05:06:32.839Z,101788.88
2022-10-11T05:09:00.849Z,101787.03
2022-10-11T05:11:28.025Z,101783.44
2022-10-11T05:13:56.814Z,101782.53
2022-10-11T05:16:23.873Z,101784.06
2022-10-11T05:18:50.685Z,101789.28
2022-10-11T05:21:23.417Z,101782.09
2022-10-11T05:23:51.678Z,101784.53
2022-10-11T05:26:20.569Z,101783.53
2022-10-11T05:28:47.591Z,101779.84
2022-10-11T05:31:15.016Z,101781.56
2022-10-11T05:33:42.158Z,101781.47
2022-10-11T05:36:09.948Z,101774.47
2022-10-11T05:38:37.134Z,101774.47
2022-10-11T05:41:05.210Z,101776.16
2022-10-11T05:43:32.586Z,101783.28
2022-10-11T05:45:59.486Z,101783.28
2022-10-11T05:48:27.028Z,101785.06
2022-10-11T05:50:58.953Z,101786.84
2022-10-11T05:53:25.986Z,101800.19
2022-10-11T05:55:52.835Z,101793.16
2022-10-11T05:58:19.791Z,101792.31
2022-10-11T06:00:46.721Z,101793.16
2022-10-11T06:03:14.157Z,101802.03
2022-10-11T06:05:41.214Z,101803.75
2022-10-11T06:08:10.217Z,101803.75
2022-10-11T06:10:38.488Z,101800.19
2022-10-11T06:13:06.699Z,101788.59
2022-10-11T06:15:34.098Z,101783.28
2022-10-11T06:18:01.009Z,101796.53
2022-10-11T06:20:27.980Z,101796.53
2022-10-11T06:22:54.961Z,101793.91
2022-10-11T06:25:22.266Z,101798.41
2022-10-11T06:27:49.211Z,101797.13
2022-10-11T06:30:16.340Z,101794.97
2022-10-11T06:32:43.164Z,101799.97
2022-10-11T06:35:10.053Z,101793.22
2022-10-11T06:37:36.953Z,101798.50
2022-10-11T06:40:04.610Z,101803.91
2022-10-11T06:42:31.504Z,101793.91
2022-10-11T06:44:58.392Z,101799.09
2022-10-11T06:47:25.274Z,101798.97
2022-10-11T06:49:52.181Z,101806.00
2022-10-11T06:52:19.107Z,101798.91
2022-10-11T06:54:45.962Z,101799.06
2022-10-11T06:57:12.883Z,101792.94
2022-10-11T06:59:39.819Z,101807.03
2022-10-11T07:02:07.201Z,101805.34
2022-10-11T07:04:34.216Z,101799.97
2022-10-11T07:07:01.177Z,101807.97
2022-10-11T07:09:28.086Z,101801.00
2022-10-11T07:11:55.060Z,101802.72
2022-10-11T07:14:21.903Z,101797.50
2022-10-11T07:16:48.751Z,101804.59
2022-10-11T07:19:15.790Z,101800.16
2022-10-11T07:21:42.703Z,101795.78
2022-10-11T07:24:09.596Z,101805.47
2022-10-11T07:26:38.245Z,101806.25
2022-10-11T07:29:09.361Z,101801.88
2022-10-11T07:31:38.157Z,101800.09
2022-10-11T07:34:05.233Z,101800.19
2022-10-11T07:36:32.250Z,101807.22
2022-10-11T07:38:59.140Z,101808.94
2022-10-11T07:41:26.078Z,101816.03
2022-10-11T07:43:54.798Z,101810.75
2022-10-11T07:46:22.045Z,101812.47
2022-10-11T07:48:50.616Z,101813.41
2022-10-11T07:51:20.313Z,101817.81
2022-10-11T07:53:49.598Z,101817.88
2022-10-11T07:56:19.185Z,101819.69
2022-10-11T07:58:51.251Z,101821.47
2022-10-11T08:01:18.914Z,101834.63
2022-10-11T08:03:46.959Z,101817.06
2022-10-11T08:06:16.325Z,101816.94
2022-10-11T08:08:43.500Z,101820.50
2022-10-11T08:11:11.078Z,101816.16
2022-10-11T08:13:38.254Z,101810.88
2022-10-11T08:16:12.861Z,101810.88
2022-10-11T08:18:39.931Z,101814.44
2022-10-11T08:21:12.033Z,101816.22
2022-10-11T08:23:39.110Z,101815.22
2022-10-11T08:26:07.080Z,101817.06
2022-10-11T08:28:34.541Z,101824.09
2022-10-11T08:31:02.035Z,101823.22
2022-10-11T08:33:28.962Z,101821.56
2022-10-11T08:35:57.508Z,101820.66
2022-10-11T08:38:24.444Z,101822.44
2022-10-11T08:40:57.734Z,101815.38
2022-10-11T08:43:55.587Z,101818.94
2022-10-11T08:46:29.170Z,101820.66
2022-10-11T08:48:56.368Z,101816.28
2022-10-11T08:51:48.193Z,101816.28
2022-10-11T08:54:35.848Z,101824.22
2022-10-11T08:57:06.127Z,101824.22
2022-10-11T09:00:09.593Z,101826.88
2022-10-11T09:03:08.395Z,101833.06
2022-10-11T09:05:40.825Z,101835.78
2022-10-11T09:08:35.026Z,101830.50
2022-10-11T09:11:45.696Z,101834.91
2022-10-11T09:14:22.612Z,101823.44
2022-10-11T09:17:01.660Z,101834.00
2022-10-11T09:20:02.459Z,101822.47
2022-10-11T09:22:50.647Z,101826.94
2022-10-11T09:25:44.871Z,101829.63
2022-10-11T09:28:44.015Z,101833.16
2022-10-11T09:31:12.021Z,101832.25
2022-10-11T09:33:47.096Z,101833.91
2022-10-11T09:36:32.877Z,101833.91
2022-10-11T09:39:07.900Z,101834.69
2022-10-11T09:42:04.265Z,101828.53
2022-10-11T09:44:46.625Z,101834.56
2022-10-11T09:47:26.157Z,101833.72
2022-10-11T09:49:58.492Z,101834.56
2022-10-11T09:52:26.225Z,101838.13
2022-10-11T09:55:01.970Z,101839.88
2022-10-11T09:57:36.262Z,101844.28
2022-10-11T10:00:12.323Z,101838.06
2022-10-11T10:03:00.886Z,101834.56
2022-10-11T10:05:29.876Z,101831.06
2022-10-11T10:08:05.657Z,101831.94
2022-10-11T10:10:39.983Z,101825.69
2022-10-11T10:13:23.653Z,101832.84
2022-10-11T10:15:56.393Z,101835.56
2022-10-11T10:18:44.610Z,101826.75
2022-10-11T10:21:14.924Z,101825.97
2022-10-11T10:23:42.643Z,101825.00
2022-10-11T10:26:20.923Z,101832.25
2022-10-11T10:29:09.631Z,101834.81
2022-10-11T10:32:12.902Z,101838.31
2022-10-11T10:34:39.269Z,101843.53
2022-10-11T10:37:20.501Z,101839.19
2022-10-11T10:39:52.930Z,101838.31
2022-10-11T10:42:21.478Z,101836.59
2022-10-11T10:44:53.439Z,101836.59
2022-10-11T10:47:45.431Z,101838.38
2022-10-11T10:50:23.407Z,101831.38
2022-10-11T10:53:31.352Z,101840.09
2022-10-11T10:56:28.471Z,101846.38
2022-10-11T10:59:03.691Z,101851.56
2022-10-11T11:01:41.148Z,101847.97
2022-10-11T11:04:32.305Z,101851.56
2022-10-11T11:07:05.444Z,101849.72
2022-10-11T11:09:55.365Z,101848.84
2022-10-11T11:12:31.246Z,101846.19
2022-10-11T11:15:35.594Z,101839.13
2022-10-11T11:18:29.786Z,101829.41
2022-10-11T11:21:17.804Z,101832.97
2022-10-11T11:24:07.854Z,101836.41
2022-10-11T11:26:58.304Z,101833.75
2022-10-11T11:29:44.617Z,101827.63
2022-10-11T11:32:17.856Z,101826.69
2022-10-11T11:34:51.296Z,101829.41
2022-10-11T11:37:26.988Z,101824.97
2022-10-11T11:40:04.941Z,101823.16
2022-10-11T11:42:42.192Z,101825.81
2022-10-11T11:45:23.918Z,101824.09
2022-10-11T11:48:01.607Z,101824.03
2022-10-11T11:50:37.312Z,101816.94
2022-10-11T11:53:15.903Z,101814.31
2022-10-11T11:56:04.803Z,101808.22
2022-10-11T11:58:53.226Z,101809.00
2022-10-11T12:01:55.563Z,101807.22
2022-10-11T12:04:28.810Z,101797.63
2022-10-11T12:07:20.721Z,101794.03
2022-10-11T12:09:51.800Z,101801.00
2022-10-11T12:12:37.938Z,101793.00
2022-10-11T12:15:37.296Z,101791.22
2022-10-11T12:18:17.023Z,101791.22
2022-10-11T12:20:44.815Z,101792.09
2022-10-11T12:23:30.373Z,101792.09
2022-10-11T12:26:31.917Z,101788.63
2022-10-11T12:29:28.218Z,101777.16
2022-10-11T12:32:02.007Z,101783.28
2022-10-11T12:34:36.270Z,101777.16
2022-10-11T12:37:19.039Z,101778.03
2022-10-11T12:39:52.329Z,101775.41
2022-10-11T12:42:26.710Z,101776.22
2022-10-11T12:45:12.333Z,101764.00
2022-10-11T12:47:54.445Z,101766.59
2022-10-11T12:50:30.415Z,101763.03
2022-10-11T12:53:39.348Z,101762.16
2022-10-11T12:56:06.665Z,101752.50
2022-10-11T12:58:41.920Z,101756.06
2022-10-11T13:01:18.146Z,101748.13
2022-10-11T13:04:05.033Z,101744.56
2022-10-11T13:06:46.443Z,101741.94
2022-10-11T13:09:30.651Z,101741.94
2022-10-11T13:12:05.104Z,101737.53
2022-10-11T13:14:38.139Z,101744.56
2022-10-11T13:17:37.995Z,101743.63
2022-10-11T13:20:17.985Z,101742.84
2022-10-11T13:22:48.041Z,101741.09
2022-10-11T13:25:21.447Z,101738.41
2022-10-11T13:27:51.888Z,101736.66
2022-10-11T13:30:22.281Z,101729.59
2022-10-11T13:32:49.515Z,101734.03
2022-10-11T13:35:38.712Z,101715.56
2022-10-11T13:38:09.333Z,101723.44
2022-10-11T13:40:37.931Z,101719.91
2022-10-11T13:43:06.321Z,101708.41
2022-10-11T13:45:36.280Z,101704.91
2022-10-11T13:48:03.550Z,101707.50
2022-10-11T13:50:35.761Z,101711.00
2022-10-11T13:53:21.792Z,101706.63
2022-10-11T13:56:12.771Z,101708.34
2022-10-11T13:58:46.786Z,101703.13
2022-10-11T14:01:37.182Z,101703.91
2022-10-11T14:04:08.045Z,101705.78
2022-10-11T14:06:46.829Z,101704.88
2022-10-11T14:09:26.156Z,101699.50
2022-10-11T14:11:54.178Z,101693.41
2022-10-11T14:14:33.418Z,101696.06
2022-10-11T14:17:22.544Z,101689.88
2022-10-11T14:20:11.513Z,101689.97
2022-10-11T14:22:39.614Z,101682.03
2022-10-11T14:25:07.031Z,101682.88
2022-10-11T14:27:35.117Z,101680.16
2022-10-11T14:32:54.361Z,101674.91
2022-10-11T14:35:26.289Z,101663.50
2022-10-11T14:37:53.845Z,101654.69
2022-10-11T14:40:24.653Z,101660.69
2022-10-11T14:42:52.823Z,101659.00
2022-10-11T14:45:21.748Z,101652.75
2022-10-11T14:47:49.815Z,101650.97
2022-10-11T14:50:19.884Z,101643.91
2022-10-11T14:52:47.283Z,101645.63
2022-10-11T14:55:14.562Z,101638.69
2022-10-11T14:57:44.363Z,101641.34
2022-10-11T15:00:25.803Z,101635.97
2022-10-11T15:02:53.897Z,101636.81
2022-10-11T15:05:26.902Z,101627.09
2022-10-11T15:07:58.904Z,101632.53
2022-10-11T15:10:32.133Z,101628.94
2022-10-11T15:12:59.454Z,101630.66
2022-10-11T15:15:30.779Z,101635.09
2022-10-11T15:18:00.115Z,101628.09
2022-10-11T15:20:32.308Z,101622.81
2022-10-11T15:23:00.694Z,101622.81
2022-10-11T15:25:29.684Z,101621.94
2022-10-11T15:27:57.879Z,101621.94
2022-10-11T15:30:28.902Z,101620.19
2022-10-11T15:32:56.586Z,101615.91
2022-10-11T15:35:25.729Z,101621.16
2022-10-11T15:37:55.246Z,101612.34
2022-10-11T15:40:34.184Z,101600.03
2022-10-11T15:43:02.696Z,101603.44
2022-10-11T15:45:30.718Z,101602.66
2022-10-11T15:47:57.859Z,101607.16
2022-10-11T15:50:37.911Z,101594.97
2022-10-11T15:53:08.024Z,101587.03
2022-10-11T15:55:40.908Z,101591.28
2022-10-11T15:58:14.896Z,101594.28
2022-10-11T16:00:43.467Z,101594.59
2022-10-11T16:03:13.181Z,101591.88
2022-10-11T16:05:41.275Z,101589.09
2022-10-11T16:08:09.584Z,101596.84
2022-10-11T16:10:37.752Z,101589.69
2022-10-11T16:13:05.233Z,101592.16
2022-10-11T16:15:32.518Z,101586.72
2022-10-11T16:17:59.729Z,101577.84
2022-10-11T16:20:26.769Z,101575.94
2022-10-11T16:22:55.134Z,101579.44
2022-10-11T16:25:24.360Z,101574.03
2022-10-11T16:27:53.136Z,101572.94
2022-10-11T16:30:20.801Z,101575.38
2022-10-11T16:32:48.040Z,101576.19
2022-10-11T16:35:16.471Z,101568.91
2022-10-11T16:37:43.558Z,101564.31
2022-10-11T16:40:12.919Z,101564.19
2022-10-11T16:42:40.058Z,101563.19
2022-10-11T16:45:08.579Z,101564.91
2022-10-11T16:47:35.582Z,101563.06
2022-10-11T16:50:02.765Z,101561.19
2022-10-11T16:52:29.689Z,101557.63
2022-10-11T16:54:56.562Z,101554.88
2022-10-11T16:57:23.781Z,101549.53
2022-10-11T16:59:51.248Z,101541.59
2022-10-11T17:02:27.629Z,101555.47
2022-10-11T17:04:59.559Z,101546.66
2022-10-11T17:07:26.752Z,101538.63
2022-10-11T17:09:53.889Z,101544.66
2022-10-11T17:12:23.674Z,101544.50
2022-10-11T17:14:51.255Z,101540.78
2022-10-11T17:17:19.500Z,101538.84
2022-10-11T17:19:48.058Z,101536.88
2022-10-11T17:22:18.304Z,101535.75
2022-10-11T17:24:45.771Z,101536.47
2022-10-11T17:27:13.366Z,101534.75
2022-10-11T17:29:40.552Z,101537.25
2022-10-11T17:32:07.595Z,101527.59
2022-10-11T17:34:34.737Z,101532.75
2022-10-11T17:37:01.723Z,101538.84
2022-10-11T17:39:28.743Z,101526.50
2022-10-11T17:41:55.836Z,101523.00
2022-10-11T17:44:22.869Z,101523.84
2022-10-11T17:46:50.541Z,101518.28
2022-10-11T17:49:17.622Z,101522.56
2022-10-11T17:51:44.984Z,101518.91
2022-10-11T17:54:13.328Z,101510.81
2022-10-11T17:56:43.327Z,101510.66
2022-10-11T17:59:17.076Z,101502.47
2022-10-11T18:01:44.652Z,101504.75
2022-10-11T18:04:16.928Z,101494.72
2022-10-11T18:06:45.766Z,101503.97
2022-10-11T18:09:16.515Z,101501.81
2022-10-11T18:11:43.997Z,101493.50
2022-10-11T18:14:11.888Z,101501.19
2022-10-11T18:16:39.946Z,101496.59
2022-10-11T18:19:10.512Z,101498.09
2022-10-11T18:21:38.405Z,101502.31
2022-10-11T18:24:17.019Z,101497.63
2022-10-11T18:26:45.777Z,101494.81
2022-10-11T18:29:13.758Z,101498.88
2022-10-11T18:31:47.781Z,101496.06
2022-10-11T18:34:19.733Z,101495.81
2022-10-11T18:36:48.384Z,101487.47
2022-10-11T18:39:16.943Z,101487.28
2022-10-11T18:41:44.970Z,101483.38
2022-10-11T18:44:21.244Z,101490.84
2022-10-11T18:46:51.486Z,101484.44
2022-10-11T18:49:18.613Z,101491.22
2022-10-11T18:51:46.970Z,101486.59
2022-10-11T18:54:20.033Z,101482.84
2022-10-11T18:56:49.934Z,101487.81
2022-10-11T18:59:17.365Z,101489.34
2022-10-11T19:01:45.859Z,101487.31
2022-10-11T19:04:16.980Z,101478.22
2022-10-11T19:06:48.149Z,101481.31
2022-10-11T19:09:18.055Z,101473.81
2022-10-11T19:11:46.027Z,101468.13
2022-10-11T19:14:15.530Z,101471.41
2022-10-11T19:16:46.632Z,101462.47
2022-10-11T19:19:13.542Z,101464.88
2022-10-11T19:21:43.253Z,101452.25
2022-10-11T19:24:10.518Z,101452.69
2022-10-11T19:26:40.030Z,101451.38
2022-10-11T19:29:20.185Z,101452.00
2022-10-11T19:31:51.089Z,101447.25
2022-10-11T19:34:18.994Z,101446.28
2022-10-11T19:36:46.183Z,101448.59
2022-10-11T19:39:15.161Z,101448.25
2022-10-11T19:41:43.030Z,101442.75
2022-10-11T19:44:10.514Z,101436.28
2022-10-11T19:46:51.059Z,101440.69
2022-10-11T19:49:22.919Z,101438.78
2022-10-11T19:51:51.106Z,101433.44
2022-10-11T19:54:18.648Z,101429.06
2022-10-11T19:56:45.776Z,101438.66
2022-10-11T19:59:13.363Z,101434.31
2022-10-11T20:01:41.773Z,101427.19
2022-10-11T20:04:27.458Z,101423.66
2022-10-11T20:06:55.992Z,101411.41
2022-10-11T20:09:30.988Z,101421.88
2022-10-11T20:12:00.939Z,101415.50
2022-10-11T20:14:28.324Z,101414.47
2022-10-11T20:16:55.367Z,101411.13
2022-10-11T20:19:30.134Z,101406.38
2022-10-11T20:21:58.996Z,101407.25
2022-10-11T20:24:29.230Z,101406.09
2022-10-11T20:26:56.367Z,101406.31
2022-10-11T20:29:26.428Z,101403.63
2022-10-11T20:31:53.929Z,101405.34
2022-10-11T20:34:21.211Z,101400.19
2022-10-11T20:36:49.633Z,101393.44
2022-10-11T20:39:16.783Z,101398.84
2022-10-11T20:41:44.033Z,101399.97
2022-10-11T20:44:13.873Z,101409.00
2022-10-11T20:46:41.003Z,101401.13
2022-10-11T20:49:11.561Z,101399.50
2022-10-11T20:51:40.374Z,101398.63
2022-10-11T20:54:08.041Z,101397.53
2022-10-11T20:56:36.011Z,101391.25
2022-10-11T20:59:03.259Z,101392.19
2022-10-11T21:01:33.710Z,101395.97
2022-10-11T21:04:02.094Z,101394.19
2022-10-11T21:06:31.039Z,101388.00
2022-10-11T21:09:02.048Z,101379.34
2022-10-11T21:11:30.169Z,101376.78
2022-10-11T21:13:58.745Z,101376.03
2022-10-11T21:16:27.248Z,101376.97
2022-10-11T21:18:56.296Z,101375.63
2022-10-11T21:21:24.638Z,101375.41
2022-10-11T21:23:56.137Z,101371.75
2022-10-11T21:26:23.304Z,101361.81
2022-10-11T21:28:50.633Z,101356.19
2022-10-11T21:31:19.161Z,101359.25
2022-10-11T21:33:46.375Z,101357.69
2022-10-11T21:36:16.804Z,101358.22
2022-10-11T21:38:44.476Z,101347.94
2022-10-11T21:41:17.168Z,101350.00
2022-10-11T21:43:44.279Z,101348.44
2022-10-11T21:46:23.734Z,101352.25
2022-10-11T21:48:52.306Z,101360.72
2022-10-11T21:51:28.114Z,101350.28
2022-10-11T21:53:56.445Z,101346.06
2022-10-11T21:56:23.830Z,101341.78
2022-10-11T21:58:51.722Z,101339.41
2022-10-11T22:01:19.924Z,101332.53
2022-10-11T22:03:47.193Z,101333.56
2022-10-11T22:06:15.111Z,101333.88
2022-10-11T22:08:42.467Z,101334.91
2022-10-11T22:11:10.371Z,101337.81
2022-10-11T22:13:37.863Z,101330.97
2022-10-11T22:16:06.647Z,101331.16
2022-10-11T22:18:33.978Z,101326.84
2022-10-11T22:21:15.757Z,101321.72
2022-10-11T22:23:45.732Z,101316.47
2022-10-11T22:26:15.698Z,101310.50
2022-10-11T22:28:42.827Z,101303.69
2022-10-11T22:31:10.764Z,101298.38
2022-10-11T22:33:38.139Z,101298.53
2022-10-11T22:36:08.970Z,101297.84
2022-10-11T22:38:37.505Z,101297.16
2022-10-11T22:41:04.396Z,101290.25
2022-10-11T22:43:31.525Z,101278.81
2022-10-11T22:45:58.622Z,101288.78
2022-10-11T22:48:25.527Z,101281.75
2022-10-11T22:50:52.841Z,101285.41
2022-10-11T22:53:20.138Z,101282.91
2022-10-11T22:55:47.259Z,101282.91
2022-10-11T22:58:14.506Z,101276.09
2022-10-11T23:00:41.455Z,101276.25
2022-10-11T23:03:08.518Z,101274.50
2022-10-11T23:05:36.137Z,101278.28
2022-10-11T23:08:03.133Z,101277.41
2022-10-11T23:10:30.108Z,101272.19
2022-10-11T23:12:56.931Z,101265.19
2022-10-11T23:15:24.017Z,101262.59
2022-10-11T23:17:50.985Z,101260.91
2022-10-11T23:20:18.149Z,101255.75
2022-10-11T23:22:45.002Z,101251.47
2022-10-11T23:25:12.048Z,101256.00
2022-10-11T23:27:39.233Z,101242.75
2022-10-11T23:30:06.763Z,101250.63
2022-10-11T23:32:34.442Z,101245.47
2022-10-11T23:35:01.298Z,101243.69
2022-10-11T23:37:28.149Z,101235.88
2022-10-11T23:39:55.065Z,101225.38
2022-10-11T23:42:21.934Z,101237.00
2022-10-11T23:44:48.938Z,101231.69
2022-10-11T23:47:15.755Z,101237.00
2022-10-11T23:49:42.675Z,101234.41
2022-10-11T23:52:09.553Z,101238.03
2022-10-11T23:54:36.445Z,101228.41
2022-10-11T23:57:03.328Z,101226.63
2022-10-11T23:59:30.233Z,101219.69
